createdAt,value
2019-05-19T00:02:13.224Z,14.17
2019-05-19T00:04:41.683Z,16.30
2019-05-19T00:07:10.161Z,16.27
2019-05-19T00:09:38.634Z,16.77
2019-05-19T00:12:07.166Z,16.40
2019-05-19T00:14:35.606Z,15.87
2019-05-19T00:17:04.247Z,17.83
2019-05-19T00:19:32.646Z,18.27
2019-05-19T00:22:01.108Z,18.80
2019-05-19T00:24:29.506Z,19.80
2019-05-19T00:26:57.955Z,20.80
2019-05-19T00:29:26.412Z,20.40
2019-05-19T00:31:54.976Z,20.00
2019-05-19T00:34:23.431Z,21.70
2019-05-19T00:36:51.884Z,22.73
2019-05-19T00:39:21.691Z,21.77
2019-05-19T00:41:50.210Z,22.40
2019-05-19T00:44:19.444Z,24.37
2019-05-19T00:46:47.876Z,28.20
2019-05-19T00:49:16.461Z,28.03
2019-05-19T00:51:45.280Z,28.33
2019-05-19T00:54:13.696Z,28.17
2019-05-19T00:56:42.782Z,28.27
2019-05-19T00:59:11.878Z,29.00
2019-05-19T01:01:40.383Z,28.33
2019-05-19T01:04:08.821Z,26.00
2019-05-19T01:06:37.261Z,28.27
2019-05-19T01:09:06.902Z,28.10
2019-05-19T01:11:35.976Z,28.60
2019-05-19T01:14:04.844Z,25.77
2019-05-19T01:16:33.283Z,26.33
2019-05-19T01:19:01.717Z,26.73
2019-05-19T01:21:31.676Z,27.20
2019-05-19T01:24:00.202Z,28.10
2019-05-19T01:26:28.664Z,28.27
2019-05-19T01:28:57.168Z,27.47
2019-05-19T01:31:25.648Z,27.70
2019-05-19T01:33:54.192Z,23.77
2019-05-19T01:36:22.747Z,24.40
2019-05-19T01:38:51.220Z,24.97
2019-05-19T01:41:19.685Z,26.83
2019-05-19T01:43:48.099Z,24.57
2019-05-19T01:46:16.554Z,25.27
2019-05-19T01:48:45.117Z,24.97
2019-05-19T01:51:13.642Z,40.30
2019-05-19T01:53:42.048Z,27.67
2019-05-19T01:56:10.494Z,25.73
2019-05-19T01:58:38.942Z,25.70
2019-05-19T02:01:07.386Z,24.80
2019-05-19T02:03:35.800Z,23.73
2019-05-19T02:06:05.936Z,22.83
2019-05-19T02:08:34.420Z,23.83
2019-05-19T02:11:02.857Z,23.00
2019-05-19T02:13:31.308Z,23.60
2019-05-19T02:15:59.760Z,23.83
2019-05-19T02:18:28.186Z,26.27
2019-05-19T02:20:56.634Z,21.90
2019-05-19T02:23:25.056Z,23.77
2019-05-19T02:25:53.525Z,22.27
2019-05-19T02:28:22.178Z,22.70
2019-05-19T02:30:50.733Z,23.93
2019-05-19T02:33:19.161Z,23.70
2019-05-19T02:35:47.603Z,24.57
2019-05-19T02:38:16.070Z,23.40
2019-05-19T02:40:47.595Z,23.13
2019-05-19T02:43:17.360Z,22.47
2019-05-19T02:45:48.215Z,23.03
2019-05-19T02:48:18.680Z,22.00
2019-05-19T02:50:52.137Z,23.73
2019-05-19T02:53:19.652Z,37.40
2019-05-19T02:55:49.664Z,27.07
2019-05-19T02:58:19.424Z,25.40
2019-05-19T03:00:47.900Z,27.57
2019-05-19T03:03:16.433Z,26.20
2019-05-19T03:05:44.856Z,27.47
2019-05-19T03:08:13.313Z,26.80
2019-05-19T03:10:41.747Z,28.00
2019-05-19T03:13:10.197Z,25.33
2019-05-19T03:15:38.620Z,27.10
2019-05-19T03:18:07.084Z,28.00
2019-05-19T03:20:35.725Z,26.77
2019-05-19T03:23:04.267Z,27.30
2019-05-19T03:25:32.763Z,26.73
2019-05-19T03:28:01.279Z,27.43
2019-05-19T03:30:31.358Z,27.10
2019-05-19T03:33:01.448Z,27.87
2019-05-19T03:35:29.897Z,27.63
2019-05-19T03:37:58.518Z,28.83
2019-05-19T03:40:27.126Z,29.20
2019-05-19T03:42:55.567Z,26.87
2019-05-19T03:45:24.063Z,29.40
2019-05-19T03:47:52.583Z,32.27
2019-05-19T03:50:21.010Z,29.60
2019-05-19T03:52:49.490Z,30.03
2019-05-19T03:55:18.117Z,30.90
2019-05-19T03:57:46.646Z,31.70
2019-05-19T04:00:15.388Z,31.07
2019-05-19T04:02:43.876Z,33.17
2019-05-19T04:05:12.575Z,32.43
2019-05-19T04:07:41.000Z,32.67
2019-05-19T04:10:10.102Z,31.73
2019-05-19T04:12:38.534Z,31.30
2019-05-19T04:15:07.430Z,31.60
2019-05-19T04:17:35.913Z,28.70
2019-05-19T04:20:06.200Z,29.73
2019-05-19T04:22:34.646Z,29.33
2019-05-19T04:25:03.135Z,32.10
2019-05-19T04:27:31.584Z,29.57
2019-05-19T04:30:00.053Z,32.20
2019-05-19T04:32:28.545Z,29.07
2019-05-19T04:34:56.965Z,32.13
2019-05-19T04:37:25.428Z,29.20
2019-05-19T04:39:53.919Z,29.83
2019-05-19T04:42:22.366Z,30.73
2019-05-19T04:44:50.827Z,31.43
2019-05-19T04:47:19.276Z,33.07
2019-05-19T04:49:47.716Z,31.47
2019-05-19T04:52:16.161Z,32.20
2019-05-19T04:54:44.636Z,32.60
2019-05-19T04:57:13.071Z,30.10
2019-05-19T04:59:41.510Z,32.23
2019-05-19T05:02:09.944Z,31.60
2019-05-19T05:04:38.401Z,32.37
2019-05-19T05:07:06.878Z,30.43
2019-05-19T05:09:35.305Z,33.47
2019-05-19T05:12:04.022Z,32.33
2019-05-19T05:14:32.433Z,30.90
2019-05-19T05:17:00.898Z,30.10
2019-05-19T05:19:29.340Z,30.87
2019-05-19T05:21:57.774Z,32.37
2019-05-19T05:24:28.531Z,32.23
2019-05-19T05:26:56.452Z,33.50
2019-05-19T05:29:24.901Z,31.10
2019-05-19T05:31:53.340Z,31.20
2019-05-19T05:34:21.758Z,33.37
2019-05-19T05:36:50.190Z,34.57
2019-05-19T05:39:18.621Z,33.23
2019-05-19T05:41:47.068Z,33.80
2019-05-19T05:44:15.482Z,32.90
2019-05-19T05:46:43.914Z,33.40
2019-05-19T05:49:15.350Z,33.10
2019-05-19T05:51:43.756Z,37.53
2019-05-19T05:54:12.214Z,36.27
2019-05-19T05:56:40.629Z,38.10
2019-05-19T05:59:09.094Z,37.10
2019-05-19T06:01:37.562Z,35.70
2019-05-19T06:04:05.982Z,37.10
2019-05-19T06:06:34.436Z,32.00
2019-05-19T06:09:08.056Z,31.33
2019-05-19T06:11:41.144Z,29.43
2019-05-19T06:14:09.597Z,28.30
2019-05-19T06:16:38.054Z,28.80
2019-05-19T06:19:06.555Z,29.00
2019-05-19T06:21:34.958Z,28.93
2019-05-19T06:24:03.439Z,28.40
2019-05-19T06:26:31.940Z,28.90
2019-05-19T06:29:00.418Z,29.17
2019-05-19T06:31:28.910Z,30.87
2019-05-19T06:33:57.378Z,31.57
2019-05-19T06:36:25.849Z,32.90
2019-05-19T06:38:54.350Z,32.30
2019-05-19T06:41:22.769Z,34.30
2019-05-19T06:43:51.232Z,32.77
2019-05-19T06:46:19.641Z,34.57
2019-05-19T06:48:48.102Z,32.50
2019-05-19T06:51:16.524Z,37.10
2019-05-19T06:53:44.960Z,34.97
2019-05-19T06:56:13.383Z,34.57
2019-05-19T06:58:41.781Z,33.23
2019-05-19T07:01:10.262Z,34.97
2019-05-19T07:03:38.700Z,32.73
2019-05-19T07:06:07.135Z,33.33
2019-05-19T07:08:35.589Z,36.27
2019-05-19T07:11:04.007Z,33.30
2019-05-19T07:13:32.450Z,36.70
2019-05-19T07:16:00.875Z,35.47
2019-05-19T07:18:29.312Z,35.30
2019-05-19T07:20:58.349Z,37.00
2019-05-19T07:23:28.647Z,34.53
2019-05-19T07:25:57.043Z,34.40
2019-05-19T07:28:25.473Z,37.40
2019-05-19T07:30:53.909Z,35.60
2019-05-19T07:33:22.357Z,34.77
2019-05-19T07:35:50.898Z,34.00
2019-05-19T07:38:19.368Z,36.70
2019-05-19T07:40:47.769Z,38.33
2019-05-19T07:43:16.246Z,35.03
2019-05-19T07:45:44.749Z,38.37
2019-05-19T07:48:13.173Z,35.20
2019-05-19T07:50:41.649Z,33.97
2019-05-19T07:53:10.154Z,35.00
2019-05-19T07:55:38.611Z,35.03
2019-05-19T07:58:07.035Z,34.33
2019-05-19T08:00:35.476Z,36.33
2019-05-19T08:03:04.025Z,35.47
2019-05-19T08:05:32.919Z,35.60
2019-05-19T08:08:01.364Z,37.57
2019-05-19T08:10:29.896Z,37.60
2019-05-19T08:12:58.364Z,36.33
2019-05-19T08:15:26.788Z,32.93
2019-05-19T08:17:55.247Z,37.27
2019-05-19T08:20:23.881Z,37.13
2019-05-19T08:22:52.348Z,38.83
2019-05-19T08:25:20.778Z,39.23
2019-05-19T08:27:49.225Z,40.67
2019-05-19T08:30:18.134Z,41.50
2019-05-19T08:32:46.587Z,41.17
2019-05-19T08:35:15.192Z,41.33
2019-05-19T08:37:43.649Z,39.63
2019-05-19T08:40:12.449Z,41.23
2019-05-19T08:42:40.907Z,42.20
2019-05-19T08:45:10.460Z,46.00
2019-05-19T08:47:38.989Z,42.73
2019-05-19T08:50:07.805Z,43.10
2019-05-19T08:52:36.337Z,41.17
2019-05-19T08:55:05.650Z,41.73
2019-05-19T08:57:34.109Z,42.73
2019-05-19T09:00:02.739Z,43.30
2019-05-19T09:02:31.276Z,40.40
2019-05-19T09:04:59.773Z,41.37
2019-05-19T09:07:28.220Z,40.30
2019-05-19T09:09:56.631Z,41.17
2019-05-19T09:12:25.084Z,38.57
2019-05-19T09:14:53.505Z,44.70
2019-05-19T09:17:21.964Z,37.30
2019-05-19T09:19:50.388Z,35.77
2019-05-19T09:22:18.841Z,36.40
2019-05-19T09:24:47.434Z,35.30
2019-05-19T09:27:15.901Z,33.60
2019-05-19T09:29:44.380Z,32.47
2019-05-19T09:32:12.892Z,32.37
2019-05-19T09:34:41.307Z,33.33
2019-05-19T09:37:09.763Z,31.20
2019-05-19T09:39:38.209Z,30.57
2019-05-19T09:42:06.633Z,33.43
2019-05-19T09:44:43.322Z,35.83
2019-05-19T09:47:11.813Z,32.43
2019-05-19T09:49:40.247Z,29.57
2019-05-19T09:52:08.727Z,31.50
2019-05-19T09:54:44.653Z,31.87
2019-05-19T09:57:07.437Z,33.10
2019-05-19T09:59:35.878Z,30.47
2019-05-19T10:02:04.519Z,31.43
2019-05-19T10:04:35.480Z,32.37
2019-05-19T10:07:04.956Z,31.80
2019-05-19T10:09:51.301Z,31.77
2019-05-19T10:12:19.813Z,32.08
2019-05-19T10:14:52.890Z,29.85
2019-05-19T10:17:21.321Z,26.80
2019-05-19T10:19:49.921Z,23.52
2019-05-19T10:22:18.495Z,26.27
2019-05-19T10:25:03.800Z,24.95
2019-05-19T10:27:21.712Z,24.72
2019-05-19T10:29:50.230Z,25.05
2019-05-19T10:32:18.904Z,26.23
2019-05-19T10:34:47.366Z,25.62
2019-05-19T10:37:15.804Z,23.83
2019-05-19T10:39:44.358Z,25.25
2019-05-19T10:42:12.806Z,28.62
2019-05-19T10:44:41.310Z,26.68
2019-05-19T10:47:09.912Z,24.20
2019-05-19T10:49:38.368Z,25.40
2019-05-19T10:52:07.158Z,24.00
2019-05-19T10:54:36.027Z,22.75
2019-05-19T10:57:04.862Z,22.30
2019-05-19T10:59:33.349Z,24.25
2019-05-19T11:02:01.776Z,22.65
2019-05-19T11:04:30.245Z,23.57
2019-05-19T11:06:58.704Z,19.95
2019-05-19T11:09:27.211Z,19.00
2019-05-19T11:11:55.634Z,22.20
2019-05-19T11:14:24.082Z,21.37
2019-05-19T11:16:52.515Z,22.85
2019-05-19T11:19:20.958Z,20.65
2019-05-19T11:21:49.420Z,21.80
2019-05-19T11:24:17.932Z,21.20
2019-05-19T11:26:46.369Z,24.47
2019-05-19T11:29:14.856Z,21.33
2019-05-19T11:31:43.283Z,23.47
2019-05-19T11:34:11.695Z,21.70
2019-05-19T11:36:41.064Z,23.20
2019-05-19T11:39:09.728Z,21.40
2019-05-19T11:41:38.191Z,20.53
2019-05-19T11:44:06.816Z,20.60
2019-05-19T11:46:35.343Z,22.47
2019-05-19T11:49:04.016Z,22.30
2019-05-19T11:51:32.490Z,19.93
2019-05-19T11:54:00.903Z,19.70
2019-05-19T11:56:29.359Z,19.13
2019-05-19T11:58:57.801Z,22.20
2019-05-19T12:01:26.288Z,20.10
2019-05-19T12:03:55.514Z,23.20
2019-05-19T12:06:38.072Z,24.17
2019-05-19T12:08:54.720Z,25.10
2019-05-19T12:11:23.220Z,24.13
2019-05-19T12:13:51.656Z,19.83
2019-05-19T12:16:20.156Z,25.37
2019-05-19T12:18:48.620Z,23.37
2019-05-19T12:21:17.116Z,22.40
2019-05-19T12:23:45.658Z,21.80
2019-05-19T12:26:22.835Z,18.67
2019-05-19T12:28:44.350Z,19.90
2019-05-19T12:31:12.763Z,20.90
2019-05-19T12:33:51.483Z,22.03
2019-05-19T12:36:11.369Z,18.90
2019-05-19T12:38:39.825Z,17.93
2019-05-19T12:41:08.335Z,17.60
2019-05-19T12:43:36.796Z,17.00
2019-05-19T12:46:15.624Z,17.70
2019-05-19T12:48:35.456Z,17.50
2019-05-19T12:51:04.050Z,15.33
2019-05-19T12:53:32.505Z,14.60
2019-05-19T12:56:01.030Z,15.40
2019-05-19T12:58:29.445Z,16.70
2019-05-19T13:00:57.916Z,13.57
2019-05-19T13:03:26.408Z,14.17
2019-05-19T13:05:54.833Z,13.57
2019-05-19T13:08:24.118Z,16.33
2019-05-19T13:10:52.539Z,15.80
2019-05-19T13:13:21.012Z,15.07
2019-05-19T13:15:49.436Z,14.43
2019-05-19T13:18:17.877Z,15.80
2019-05-19T13:20:46.354Z,15.60
2019-05-19T13:23:14.768Z,13.57
2019-05-19T13:25:43.210Z,11.00
2019-05-19T13:28:11.633Z,11.70
2019-05-19T13:30:43.426Z,13.50
2019-05-19T13:33:10.381Z,14.53
2019-05-19T13:35:38.856Z,14.93
2019-05-19T13:38:07.294Z,21.30
2019-05-19T13:40:35.732Z,18.53
2019-05-19T13:43:04.209Z,19.90
2019-05-19T13:45:32.663Z,19.60
2019-05-19T13:48:01.068Z,18.43
2019-05-19T13:50:29.512Z,17.40
2019-05-19T13:52:58.006Z,15.03
2019-05-19T13:55:26.492Z,9.10
2019-05-19T13:57:55.010Z,4.70
2019-05-19T14:00:23.581Z,3.50
2019-05-19T14:02:52.013Z,4.80
2019-05-19T14:05:20.452Z,6.20
2019-05-19T14:07:48.903Z,6.27
2019-05-19T14:10:17.602Z,7.67
2019-05-19T14:12:46.045Z,7.80
2019-05-19T14:15:14.822Z,11.03
2019-05-19T14:17:43.257Z,9.63
2019-05-19T14:20:11.967Z,14.87
2019-05-19T14:22:40.362Z,9.50
2019-05-19T14:25:08.970Z,8.10
2019-05-19T14:27:37.428Z,7.97
2019-05-19T14:30:07.570Z,8.33
2019-05-19T14:32:36.037Z,13.10
2019-05-19T14:35:06.789Z,13.83
2019-05-19T14:37:35.242Z,9.30
2019-05-19T14:40:05.267Z,9.77
2019-05-19T14:42:46.960Z,7.07
2019-05-19T14:45:16.251Z,9.50
2019-05-19T14:47:44.667Z,8.43
2019-05-19T14:50:13.357Z,10.83
2019-05-19T14:52:41.784Z,9.30
2019-05-19T14:55:10.381Z,8.50
2019-05-19T14:57:44.877Z,8.00
2019-05-19T15:00:09.499Z,8.30
2019-05-19T15:02:38.012Z,7.17
2019-05-19T15:05:07.196Z,7.07
2019-05-19T15:07:37.198Z,8.07
2019-05-19T15:10:06.248Z,9.60
2019-05-19T15:12:34.761Z,8.10
2019-05-19T15:15:04.449Z,8.43
2019-05-19T15:17:32.909Z,10.87
2019-05-19T15:20:01.355Z,10.17
2019-05-19T15:22:29.794Z,6.90
2019-05-19T15:24:58.228Z,6.60
2019-05-19T15:27:26.663Z,8.10
2019-05-19T15:29:55.150Z,7.50
2019-05-19T15:32:23.573Z,7.53
2019-05-19T15:34:53.384Z,6.37
2019-05-19T15:37:21.836Z,7.50
2019-05-19T15:39:50.253Z,7.33
2019-05-19T15:42:18.693Z,7.33
2019-05-19T15:44:47.122Z,8.50
2019-05-19T15:47:15.591Z,10.53
2019-05-19T15:49:44.038Z,7.10
2019-05-19T15:52:12.480Z,7.83
2019-05-19T15:54:40.984Z,7.77
2019-05-19T15:57:09.446Z,7.47
2019-05-19T15:59:37.910Z,6.77
2019-05-19T16:02:06.341Z,7.97
2019-05-19T16:04:34.853Z,7.80
2019-05-19T16:07:03.314Z,7.23
2019-05-19T16:09:31.778Z,7.67
2019-05-19T16:12:00.209Z,7.97
2019-05-19T16:14:28.740Z,7.20
2019-05-19T16:16:57.204Z,7.50
2019-05-19T16:19:25.697Z,5.73
2019-05-19T16:21:54.296Z,6.77
2019-05-19T16:24:22.711Z,6.07
2019-05-19T16:26:51.143Z,6.83
2019-05-19T16:29:20.461Z,8.97
2019-05-19T16:31:50.003Z,9.13
2019-05-19T16:34:18.426Z,9.00
2019-05-19T16:36:46.866Z,7.90
2019-05-19T16:39:15.319Z,9.10
2019-05-19T16:41:43.832Z,8.07
2019-05-19T16:44:12.248Z,9.37
2019-05-19T16:46:40.685Z,8.40
2019-05-19T16:49:09.095Z,9.37
2019-05-19T16:51:37.580Z,10.07
2019-05-19T16:54:07.644Z,14.60
2019-05-19T16:56:36.774Z,19.80
2019-05-19T16:59:05.209Z,14.93
2019-05-19T17:01:33.640Z,8.40
2019-05-19T17:04:02.097Z,7.97
2019-05-19T17:06:30.512Z,7.97
2019-05-19T17:08:58.963Z,7.70
2019-05-19T17:11:27.385Z,8.80
2019-05-19T17:13:55.823Z,8.93
2019-05-19T17:16:24.374Z,9.67
2019-05-19T17:18:52.801Z,10.10
2019-05-19T17:21:21.212Z,9.77
2019-05-19T17:23:49.673Z,13.30
2019-05-19T17:26:18.121Z,11.43
2019-05-19T17:28:59.821Z,12.10
2019-05-19T17:31:16.857Z,13.13
2019-05-19T17:33:45.283Z,13.63
2019-05-19T17:36:13.724Z,13.73
2019-05-19T17:38:42.184Z,13.70
2019-05-19T17:41:10.778Z,12.80
2019-05-19T17:43:39.207Z,13.40
2019-05-19T17:46:07.662Z,12.80
2019-05-19T17:48:36.087Z,17.30
2019-05-19T17:51:05.584Z,16.20
2019-05-19T17:53:34.082Z,16.53
2019-05-19T17:56:03.359Z,15.37
2019-05-19T17:58:32.620Z,16.13
2019-05-19T18:01:01.056Z,18.30
2019-05-19T18:03:30.043Z,16.50
2019-05-19T18:05:58.537Z,17.57
2019-05-19T18:08:26.967Z,16.70
2019-05-19T18:10:55.417Z,18.17
2019-05-19T18:13:23.940Z,18.43
2019-05-19T18:15:52.485Z,18.07
2019-05-19T18:18:22.696Z,19.63
2019-05-19T18:20:51.259Z,19.40
2019-05-19T18:23:19.712Z,21.13
2019-05-19T18:25:48.171Z,19.70
2019-05-19T18:28:16.585Z,32.93
2019-05-19T18:30:45.053Z,31.67
2019-05-19T18:33:13.485Z,25.03
2019-05-19T18:35:41.929Z,23.90
2019-05-19T18:38:10.347Z,22.53
2019-05-19T18:40:38.856Z,21.13
2019-05-19T18:43:07.313Z,21.80
2019-05-19T18:45:35.746Z,20.20
2019-05-19T18:48:04.199Z,19.10
2019-05-19T18:50:32.628Z,18.73
2019-05-19T18:53:01.056Z,18.97
2019-05-19T18:55:29.523Z,19.07
2019-05-19T18:57:57.925Z,17.70
2019-05-19T19:00:35.252Z,18.30
2019-05-19T19:03:04.697Z,18.47
2019-05-19T19:05:33.290Z,16.77
2019-05-19T19:08:01.822Z,14.10
2019-05-19T19:10:30.324Z,13.27
2019-05-19T19:12:58.813Z,13.50
2019-05-19T19:15:27.446Z,13.33
2019-05-19T19:17:55.980Z,13.10
2019-05-19T19:20:24.471Z,14.87
2019-05-19T19:22:52.999Z,27.97
2019-05-19T19:25:21.467Z,16.97
2019-05-19T19:27:51.161Z,19.20
2019-05-19T19:30:19.954Z,15.50
2019-05-19T19:32:48.402Z,17.43
2019-05-19T19:35:16.843Z,18.40
2019-05-19T19:37:45.471Z,18.67
2019-05-19T19:40:15.591Z,19.53
2019-05-19T19:42:44.023Z,18.80
2019-05-19T19:45:12.771Z,20.00
2019-05-19T19:47:41.188Z,22.00
2019-05-19T19:50:09.956Z,22.30
2019-05-19T19:52:38.414Z,24.30
2019-05-19T19:55:07.086Z,24.10
2019-05-19T19:57:35.580Z,24.13
2019-05-19T20:00:17.344Z,23.50
2019-05-19T20:02:35.941Z,23.90
2019-05-19T20:05:06.048Z,26.40
2019-05-19T20:07:34.477Z,25.23
2019-05-19T20:10:03.577Z,25.80
2019-05-19T20:12:32.023Z,25.27
2019-05-19T20:15:00.538Z,29.00
2019-05-19T20:17:28.986Z,26.67
2019-05-19T20:19:57.571Z,28.93
2019-05-19T20:22:26.040Z,26.17
2019-05-19T20:24:54.579Z,25.77
2019-05-19T20:27:23.078Z,25.93
2019-05-19T20:29:51.651Z,26.80
2019-05-19T20:32:20.064Z,25.77
2019-05-19T20:34:48.503Z,26.33
2019-05-19T20:37:16.948Z,27.07
2019-05-19T20:39:45.765Z,23.63
2019-05-19T20:42:14.162Z,24.00
2019-05-19T20:44:42.620Z,27.53
2019-05-19T20:47:11.072Z,26.43
2019-05-19T20:49:39.526Z,28.67
2019-05-19T20:52:07.956Z,29.37
2019-05-19T20:54:36.414Z,30.93
2019-05-19T20:57:04.842Z,30.73
2019-05-19T20:59:33.276Z,34.57
2019-05-19T21:02:01.736Z,33.50
2019-05-19T21:04:30.164Z,33.80
2019-05-19T21:06:58.612Z,35.00
2019-05-19T21:09:27.048Z,33.70
2019-05-19T21:11:55.522Z,31.50
2019-05-19T21:14:24.014Z,34.47
2019-05-19T21:16:52.710Z,38.47
2019-05-19T21:19:21.167Z,36.30
2019-05-19T21:21:52.318Z,34.43
2019-05-19T21:24:20.764Z,31.30
2019-05-19T21:26:49.179Z,32.53
2019-05-19T21:29:17.629Z,31.33
2019-05-19T21:31:46.046Z,29.87
2019-05-19T21:34:14.512Z,31.10
2019-05-19T21:36:43.032Z,30.67
2019-05-19T21:39:11.522Z,30.30
2019-05-19T21:41:40.112Z,29.73
2019-05-19T21:44:08.618Z,29.73
2019-05-19T21:46:37.077Z,31.30
2019-05-19T21:49:05.632Z,29.93
2019-05-19T21:51:34.421Z,29.17
2019-05-19T21:54:02.832Z,30.90
2019-05-19T21:56:31.300Z,29.73
2019-05-19T21:58:59.738Z,27.93
2019-05-19T22:01:28.237Z,28.70
2019-05-19T22:03:56.677Z,29.53
2019-05-19T22:06:26.773Z,29.87
2019-05-19T22:08:55.203Z,30.10
2019-05-19T22:11:24.423Z,30.37
2019-05-19T22:13:52.837Z,31.67
2019-05-19T22:16:21.301Z,30.30
2019-05-19T22:18:49.837Z,29.10
2019-05-19T22:21:18.277Z,30.53
2019-05-19T22:23:46.697Z,30.30
2019-05-19T22:26:15.208Z,28.70
2019-05-19T22:28:43.730Z,31.40
2019-05-19T22:31:12.157Z,32.80
2019-05-19T22:33:40.594Z,31.67
2019-05-19T22:36:09.052Z,31.37
2019-05-19T22:38:37.519Z,30.43
2019-05-19T22:41:05.975Z,29.60
2019-05-19T22:43:34.404Z,30.23
2019-05-19T22:46:02.848Z,30.40
2019-05-19T22:48:31.274Z,30.73
2019-05-19T22:50:59.893Z,32.40
2019-05-19T22:53:28.316Z,32.93
2019-05-19T22:55:56.779Z,31.30
2019-05-19T22:58:25.190Z,28.80
2019-05-19T23:00:53.642Z,31.57
2019-05-19T23:03:22.074Z,30.17
2019-05-19T23:05:50.559Z,31.50
2019-05-19T23:08:19.138Z,32.57
2019-05-19T23:10:47.585Z,35.17
2019-05-19T23:13:16.128Z,36.37
2019-05-19T23:15:44.536Z,35.43
2019-05-19T23:18:12.981Z,35.60
2019-05-19T23:20:41.477Z,36.73
2019-05-19T23:23:09.984Z,36.60
2019-05-19T23:25:38.428Z,38.30
2019-05-19T23:28:07.390Z,39.73
2019-05-19T23:30:35.894Z,38.07
2019-05-19T23:33:04.340Z,39.80
2019-05-19T23:35:32.786Z,40.17
2019-05-19T23:38:01.207Z,41.10
2019-05-19T23:40:29.659Z,40.40
2019-05-19T23:42:58.114Z,42.40
2019-05-19T23:45:26.525Z,46.53
2019-05-19T23:47:54.976Z,47.03
2019-05-19T23:50:23.516Z,46.60
2019-05-19T23:52:52.052Z,48.30
2019-05-19T23:55:20.523Z,45.80
2019-05-19T23:57:48.996Z,45.33
